createdAt,value
2019-02-04T00:01:56.167Z,57.00
2019-02-04T00:04:27.125Z,55.63
2019-02-04T00:06:57.806Z,54.33
2019-02-04T00:09:29.168Z,59.13
2019-02-04T00:12:00.207Z,51.90
2019-02-04T00:14:30.888Z,49.80
2019-02-04T00:17:01.925Z,46.83
2019-02-04T00:19:32.725Z,49.23
2019-02-04T00:22:03.629Z,51.03
2019-02-04T00:24:34.644Z,50.40
2019-02-04T00:27:05.607Z,48.57
2019-02-04T00:29:36.525Z,41.63
2019-02-04T00:32:07.605Z,44.67
2019-02-04T00:34:38.245Z,42.87
2019-02-04T00:37:09.655Z,45.47
2019-02-04T00:39:40.725Z,45.07
2019-02-04T00:42:11.926Z,44.43
2019-02-04T00:44:42.685Z,44.37
2019-02-04T00:47:14.165Z,46.60
2019-02-04T00:49:45.166Z,44.90
2019-02-04T00:52:15.890Z,44.17
2019-02-04T00:54:46.725Z,41.67
2019-02-04T00:57:17.765Z,44.37
2019-02-04T00:59:49.008Z,39.23
2019-02-04T01:02:20.726Z,39.30
2019-02-04T01:04:52.205Z,42.93
2019-02-04T01:07:23.805Z,39.80
2019-02-04T01:09:56.247Z,37.13
2019-02-04T01:12:27.173Z,35.83
2019-02-04T01:14:58.333Z,32.43
2019-02-04T01:17:29.165Z,32.73
2019-02-04T01:19:59.925Z,29.87
2019-02-04T01:22:30.647Z,31.20
2019-02-04T01:25:01.699Z,27.27
2019-02-04T01:27:33.965Z,26.40
2019-02-04T01:30:06.077Z,27.80
2019-02-04T01:32:36.814Z,26.83
2019-02-04T01:35:08.245Z,23.70
2019-02-04T01:37:39.207Z,22.00
2019-02-04T01:40:16.765Z,22.57
2019-02-04T01:42:47.845Z,20.20
2019-02-04T01:45:18.686Z,22.30
2019-02-04T01:47:49.565Z,21.27
2019-02-04T01:50:22.685Z,20.70
2019-02-04T01:52:53.444Z,17.17
2019-02-04T01:55:24.564Z,17.03
2019-02-04T01:57:56.965Z,16.77
2019-02-04T02:00:30.917Z,17.33
2019-02-04T02:03:02.173Z,17.20
2019-02-04T02:05:33.765Z,16.57
2019-02-04T02:08:04.557Z,16.13
2019-02-04T02:10:35.685Z,15.33
2019-02-04T02:13:06.325Z,15.73
2019-02-04T02:15:37.645Z,14.20
2019-02-04T02:18:08.413Z,15.57
2019-02-04T02:20:39.245Z,14.00
2019-02-04T02:23:12.205Z,16.60
2019-02-04T02:25:43.005Z,13.20
2019-02-04T02:28:15.514Z,14.67
2019-02-04T02:30:46.645Z,15.70
2019-02-04T02:33:17.413Z,15.63
2019-02-04T02:35:48.285Z,14.27
2019-02-04T02:38:19.048Z,14.73
2019-02-04T02:40:50.611Z,14.00
2019-02-04T02:43:21.797Z,14.80
2019-02-04T02:45:52.608Z,13.23
2019-02-04T02:48:24.085Z,16.33
2019-02-04T02:50:56.125Z,13.70
2019-02-04T02:53:26.805Z,14.67
2019-02-04T02:55:57.845Z,13.77
2019-02-04T02:58:29.005Z,13.10
2019-02-04T03:01:00.006Z,12.87
2019-02-04T03:03:31.526Z,12.10
2019-02-04T03:06:02.565Z,12.10
2019-02-04T03:08:33.565Z,11.77
2019-02-04T03:11:05.325Z,12.83
2019-02-04T03:13:36.167Z,11.90
2019-02-04T03:16:07.325Z,13.07
2019-02-04T03:18:38.206Z,13.37
2019-02-04T03:21:08.845Z,12.23
2019-02-04T03:23:40.333Z,12.10
2019-02-04T03:26:11.005Z,11.87
2019-02-04T03:28:42.365Z,10.63
2019-02-04T03:31:13.087Z,10.87
2019-02-04T03:33:44.047Z,9.93
2019-02-04T03:36:14.885Z,10.30
2019-02-04T03:38:46.086Z,10.23
2019-02-04T03:41:17.045Z,10.90
2019-02-04T03:43:48.688Z,9.90
2019-02-04T03:46:19.766Z,9.37
2019-02-04T03:48:50.405Z,9.57
2019-02-04T03:51:21.398Z,9.10
2019-02-04T03:53:52.446Z,9.63
2019-02-04T03:56:27.097Z,9.47
2019-02-04T03:58:57.925Z,8.77
2019-02-04T04:01:29.085Z,8.53
2019-02-04T04:04:00.015Z,8.63
2019-02-04T04:06:31.617Z,7.87
2019-02-04T04:09:02.486Z,9.10
2019-02-04T04:11:33.885Z,8.90
2019-02-04T04:14:06.965Z,8.90
2019-02-04T04:16:38.085Z,7.50
2019-02-04T04:19:09.526Z,7.00
2019-02-04T04:21:40.565Z,8.43
2019-02-04T04:24:11.847Z,6.60
2019-02-04T04:26:43.206Z,8.03
2019-02-04T04:29:14.427Z,6.90
2019-02-04T04:31:45.846Z,7.30
2019-02-04T04:34:16.608Z,6.60
2019-02-04T04:36:47.565Z,6.57
2019-02-04T04:39:18.605Z,7.70
2019-02-04T04:41:49.477Z,6.67
2019-02-04T04:44:20.317Z,5.40
2019-02-04T04:46:51.574Z,7.27
2019-02-04T04:49:22.366Z,7.43
2019-02-04T04:51:53.205Z,7.33
2019-02-04T04:54:24.086Z,10.30
2019-02-04T04:56:55.125Z,10.30
2019-02-04T04:59:25.895Z,6.57
2019-02-04T05:01:57.046Z,6.73
2019-02-04T05:04:28.645Z,6.10
2019-02-04T05:07:00.721Z,6.53
2019-02-04T05:09:31.845Z,5.60
2019-02-04T05:12:02.934Z,6.47
2019-02-04T05:14:34.207Z,5.00
2019-02-04T05:17:05.486Z,6.20
2019-02-04T05:19:37.087Z,8.33
2019-02-04T05:22:09.638Z,5.93
2019-02-04T05:24:48.295Z,5.33
2019-02-04T05:27:29.085Z,5.03
2019-02-04T05:30:01.405Z,5.47
2019-02-04T05:32:32.645Z,5.20
2019-02-04T05:35:03.568Z,5.17
2019-02-04T05:37:34.325Z,5.93
2019-02-04T05:40:06.006Z,5.80
2019-02-04T05:42:36.805Z,8.70
2019-02-04T05:45:09.367Z,15.07
2019-02-04T05:47:40.610Z,5.23
2019-02-04T05:50:13.965Z,6.83
2019-02-04T05:52:44.854Z,6.17
2019-02-04T05:55:17.204Z,5.47
2019-02-04T05:57:47.967Z,5.93
2019-02-04T06:00:30.209Z,10.43
2019-02-04T06:03:00.965Z,6.30
2019-02-04T06:05:32.331Z,7.03
2019-02-04T06:08:04.126Z,6.60
2019-02-04T06:10:35.646Z,6.77
2019-02-04T06:13:06.406Z,6.13
2019-02-04T06:15:37.885Z,8.37
2019-02-04T06:18:08.968Z,6.97
2019-02-04T06:20:40.405Z,7.37
2019-02-04T06:23:13.166Z,7.73
2019-02-04T06:25:45.206Z,7.70
2019-02-04T06:28:16.237Z,8.63
2019-02-04T06:30:47.326Z,8.30
2019-02-04T06:33:18.397Z,7.80
2019-02-04T06:35:49.245Z,8.70
2019-02-04T06:38:20.686Z,8.40
2019-02-04T06:40:51.606Z,7.77
2019-02-04T06:43:22.565Z,9.73
2019-02-04T06:45:54.088Z,10.70
2019-02-04T06:48:25.325Z,9.37
2019-02-04T06:50:56.449Z,9.07
2019-02-04T06:53:27.525Z,8.63
2019-02-04T06:55:58.365Z,11.87
2019-02-04T06:58:29.845Z,9.30
2019-02-04T07:01:00.726Z,8.80
2019-02-04T07:03:32.405Z,8.50
2019-02-04T07:06:03.687Z,9.53
2019-02-04T07:08:34.974Z,9.27
2019-02-04T07:11:06.166Z,10.43
2019-02-04T07:13:42.108Z,9.73
2019-02-04T07:16:10.687Z,9.33
2019-02-04T07:18:41.806Z,9.27
2019-02-04T07:21:12.690Z,9.13
2019-02-04T07:23:44.336Z,9.53
2019-02-04T07:26:19.365Z,10.23
2019-02-04T07:28:56.608Z,10.63
2019-02-04T07:31:29.005Z,10.00
2019-02-04T07:34:03.766Z,10.70
2019-02-04T07:36:38.965Z,12.43
2019-02-04T07:39:17.767Z,12.47
2019-02-04T07:41:51.526Z,11.90
2019-02-04T07:44:31.766Z,11.83
2019-02-04T07:47:07.168Z,13.07
2019-02-04T07:49:41.305Z,12.90
2019-02-04T07:52:20.445Z,11.57
2019-02-04T07:55:03.445Z,13.13
2019-02-04T07:57:57.035Z,15.53
2019-02-04T08:00:36.504Z,15.40
2019-02-04T08:03:19.446Z,12.50
2019-02-04T08:05:59.447Z,13.43
2019-02-04T08:08:37.008Z,15.43
2019-02-04T08:11:19.046Z,15.27
2019-02-04T08:13:57.765Z,16.67
2019-02-04T08:16:36.006Z,13.17
2019-02-04T08:19:19.965Z,13.87
2019-02-04T08:22:00.967Z,15.53
2019-02-04T08:24:38.526Z,21.97
2019-02-04T08:27:20.221Z,17.23
2019-02-04T08:29:55.027Z,16.43
2019-02-04T08:32:40.045Z,14.90
2019-02-04T08:35:20.006Z,14.60
2019-02-04T08:38:02.854Z,15.77
2019-02-04T08:40:47.237Z,15.63
2019-02-04T08:43:27.406Z,16.47
2019-02-04T08:46:02.450Z,16.83
2019-02-04T08:48:40.484Z,14.80
2019-02-04T08:51:14.445Z,13.00
2019-02-04T08:53:46.733Z,15.27
2019-02-04T08:56:17.444Z,14.37
2019-02-04T08:58:48.806Z,15.63
2019-02-04T09:01:21.205Z,17.17
2019-02-04T09:03:52.286Z,15.53
2019-02-04T09:06:28.284Z,16.63
2019-02-04T09:08:59.766Z,17.13
2019-02-04T09:11:34.489Z,16.90
2019-02-04T09:14:06.685Z,18.17
2019-02-04T09:16:37.844Z,15.00
2019-02-04T09:19:08.970Z,15.97
2019-02-04T09:21:39.895Z,16.00
2019-02-04T09:24:10.607Z,16.00
2019-02-04T09:26:42.087Z,18.53
2019-02-04T09:29:13.037Z,18.53
2019-02-04T09:31:44.285Z,16.23
2019-02-04T09:34:15.685Z,16.20
2019-02-04T09:36:48.165Z,17.40
2019-02-04T09:39:23.085Z,17.93
2019-02-04T09:41:53.805Z,16.40
2019-02-04T09:44:24.885Z,15.80
2019-02-04T09:46:55.846Z,15.70
2019-02-04T09:49:37.886Z,14.93
2019-02-04T09:52:17.566Z,16.20
2019-02-04T09:54:50.197Z,16.53
2019-02-04T09:57:21.647Z,16.30
2019-02-04T09:59:56.130Z,13.93
2019-02-04T10:02:27.847Z,14.93
2019-02-04T10:04:58.656Z,15.43
2019-02-04T10:07:34.726Z,14.00
2019-02-04T10:10:07.814Z,15.03
2019-02-04T10:12:39.006Z,15.13
2019-02-04T10:15:13.208Z,15.57
2019-02-04T10:17:45.365Z,15.13
2019-02-04T10:20:17.785Z,14.70
2019-02-04T10:22:48.841Z,16.50
2019-02-04T10:25:22.465Z,17.33
2019-02-04T10:27:53.452Z,16.00
2019-02-04T10:30:24.967Z,17.27
2019-02-04T10:32:55.766Z,17.57
2019-02-04T10:35:34.569Z,15.67
2019-02-04T10:38:07.828Z,16.87
2019-02-04T10:40:41.966Z,17.43
2019-02-04T10:43:12.958Z,15.30
2019-02-04T10:45:43.891Z,15.93
2019-02-04T10:48:15.105Z,14.27
2019-02-04T10:50:47.011Z,17.60
2019-02-04T10:53:18.525Z,16.80
2019-02-04T10:55:52.784Z,16.63
2019-02-04T10:58:34.194Z,16.70
2019-02-04T11:01:19.328Z,17.73
2019-02-04T11:04:02.049Z,17.77
2019-02-04T11:06:34.196Z,17.13
2019-02-04T11:09:08.405Z,19.47
2019-02-04T11:11:43.849Z,17.13
2019-02-04T11:14:17.173Z,18.27
2019-02-04T11:16:52.192Z,18.20
2019-02-04T11:19:23.179Z,19.07
2019-02-04T11:21:54.125Z,19.47
2019-02-04T11:24:26.723Z,18.87
2019-02-04T11:26:57.448Z,21.13
2019-02-04T11:29:28.794Z,19.93
2019-02-04T11:32:00.607Z,19.87
2019-02-04T11:34:32.045Z,17.33
2019-02-04T11:37:02.959Z,18.60
2019-02-04T11:39:34.359Z,18.10
2019-02-04T11:42:06.086Z,18.17
2019-02-04T11:44:37.093Z,17.90
2019-02-04T11:47:09.052Z,17.77
2019-02-04T11:49:40.048Z,17.77
2019-02-04T11:52:12.287Z,16.57
2019-02-04T11:54:44.215Z,16.47
2019-02-04T11:57:14.925Z,17.70
2019-02-04T11:59:46.094Z,17.57
2019-02-04T12:02:16.848Z,17.53
2019-02-04T12:04:47.849Z,18.40
2019-02-04T12:07:19.341Z,17.07
2019-02-04T12:09:51.247Z,18.63
2019-02-04T12:12:23.485Z,15.87
2019-02-04T12:14:54.452Z,16.30
2019-02-04T12:17:25.291Z,17.37
2019-02-04T12:19:56.729Z,15.90
2019-02-04T12:22:27.925Z,18.40
2019-02-04T12:25:00.650Z,17.73
2019-02-04T12:27:32.437Z,16.80
2019-02-04T12:30:03.539Z,16.93
2019-02-04T12:32:35.014Z,19.40
2019-02-04T12:35:07.977Z,16.90
2019-02-04T12:37:38.806Z,17.43
2019-02-04T12:40:20.407Z,17.90
2019-02-04T12:42:51.887Z,17.27
2019-02-04T12:45:34.104Z,17.70
2019-02-04T12:48:13.246Z,18.60
2019-02-04T12:50:50.167Z,18.10
2019-02-04T12:53:31.685Z,17.77
2019-02-04T12:56:09.449Z,17.53
2019-02-04T12:58:55.351Z,17.23
2019-02-04T13:01:26.776Z,17.43
2019-02-04T13:04:03.564Z,21.60
2019-02-04T13:06:39.047Z,18.10
2019-02-04T13:09:11.206Z,16.80
2019-02-04T13:11:51.245Z,16.47
2019-02-04T13:14:28.421Z,16.83
2019-02-04T13:17:08.895Z,18.63
2019-02-04T13:19:49.648Z,20.50
2019-02-04T13:22:21.845Z,19.13
2019-02-04T13:24:57.966Z,16.67
2019-02-04T13:27:35.725Z,17.57
2019-02-04T13:30:13.766Z,17.30
2019-02-04T13:32:46.365Z,19.53
2019-02-04T13:35:25.326Z,17.43
2019-02-04T13:38:00.071Z,17.47
2019-02-04T13:40:37.791Z,19.43
2019-02-04T13:43:14.565Z,19.73
2019-02-04T13:45:46.770Z,22.13
2019-02-04T13:48:32.251Z,22.23
2019-02-04T13:51:12.485Z,19.23
2019-02-04T13:53:47.445Z,18.07
2019-02-04T13:56:27.245Z,20.53
2019-02-04T13:59:01.673Z,20.60
2019-02-04T14:01:53.805Z,19.63
2019-02-04T14:04:27.357Z,19.83
2019-02-04T14:07:01.206Z,20.33
2019-02-04T14:09:36.766Z,20.90
2019-02-04T14:12:07.650Z,20.27
2019-02-04T14:14:46.638Z,21.03
2019-02-04T14:17:24.597Z,20.27
2019-02-04T14:20:07.367Z,20.03
2019-02-04T14:22:44.765Z,19.50
2019-02-04T14:25:18.805Z,20.53
2019-02-04T14:27:53.847Z,19.50
2019-02-04T14:30:41.085Z,20.13
2019-02-04T14:33:33.038Z,19.53
2019-02-04T14:36:05.044Z,22.37
2019-02-04T14:38:36.206Z,19.60
2019-02-04T14:41:07.205Z,20.13
2019-02-04T14:43:43.551Z,27.63
2019-02-04T14:46:43.374Z,20.10
2019-02-04T14:49:52.576Z,20.03
2019-02-04T14:52:51.477Z,18.97
2019-02-04T14:55:53.565Z,19.90
2019-02-04T14:58:30.247Z,18.27
2019-02-04T15:01:37.165Z,20.97
2019-02-04T15:04:36.653Z,73.33
2019-02-04T15:07:46.254Z,22.00
2019-02-04T15:10:27.365Z,20.33
2019-02-04T15:13:25.605Z,22.67
2019-02-04T15:16:10.678Z,22.67
2019-02-04T15:19:20.246Z,19.70
2019-02-04T15:22:33.346Z,21.93
2019-02-04T15:25:39.485Z,21.43
2019-02-04T15:28:39.968Z,22.77
2019-02-04T15:31:38.925Z,21.27
2019-02-04T15:34:43.368Z,22.10
2019-02-04T15:37:24.805Z,22.10
2019-02-04T15:40:10.205Z,21.77
2019-02-04T15:43:10.567Z,23.13
2019-02-04T15:45:54.808Z,24.03
2019-02-04T15:48:34.565Z,23.30
2019-02-04T15:51:13.965Z,23.97
2019-02-04T15:53:45.008Z,24.63
2019-02-04T15:56:16.783Z,21.77
2019-02-04T15:58:47.486Z,23.70
2019-02-04T16:01:18.805Z,22.03
2019-02-04T16:03:49.767Z,22.47
2019-02-04T16:06:21.447Z,23.37
2019-02-04T16:08:52.686Z,21.80
2019-02-04T16:11:23.727Z,23.67
2019-02-04T16:13:54.486Z,21.80
2019-02-04T16:16:25.405Z,21.17
2019-02-04T16:18:56.885Z,22.80
2019-02-04T16:21:28.206Z,22.50
2019-02-04T16:23:59.245Z,21.80
2019-02-04T16:26:30.766Z,22.03
2019-02-04T16:29:01.365Z,20.20
2019-02-04T16:31:32.646Z,19.93
2019-02-04T16:34:04.335Z,19.87
2019-02-04T16:36:35.175Z,22.50
2019-02-04T16:39:09.765Z,20.47
2019-02-04T16:41:41.748Z,20.47
2019-02-04T16:44:13.697Z,21.47
2019-02-04T16:46:45.456Z,34.57
2019-02-04T16:49:17.122Z,19.87
2019-02-04T16:51:48.888Z,19.17
2019-02-04T16:54:19.993Z,20.10
2019-02-04T16:56:51.566Z,18.80
2019-02-04T16:59:24.471Z,17.97
2019-02-04T17:01:57.436Z,18.90
2019-02-04T17:04:28.233Z,16.80
2019-02-04T17:07:01.558Z,18.70
2019-02-04T17:09:33.255Z,16.60
2019-02-04T17:12:04.822Z,17.27
2019-02-04T17:14:35.502Z,16.63
2019-02-04T17:17:06.705Z,15.77
2019-02-04T17:19:37.901Z,18.63
2019-02-04T17:22:08.942Z,15.50
2019-02-04T17:24:39.981Z,15.53
2019-02-04T17:27:11.192Z,15.00
2019-02-04T17:29:41.822Z,13.93
2019-02-04T17:32:12.983Z,14.87
2019-02-04T17:34:43.862Z,16.47
2019-02-04T17:37:15.101Z,14.77
2019-02-04T17:39:45.823Z,15.53
2019-02-04T17:42:17.142Z,13.33
2019-02-04T17:44:47.901Z,14.90
2019-02-04T17:47:18.701Z,14.10
2019-02-04T17:49:49.862Z,13.70
2019-02-04T17:52:20.781Z,13.57
2019-02-04T17:54:51.501Z,11.03
2019-02-04T17:57:22.453Z,11.40
2019-02-04T17:59:53.501Z,12.83
2019-02-04T18:02:24.464Z,11.53
2019-02-04T18:04:55.343Z,12.03
2019-02-04T18:07:27.301Z,13.07
2019-02-04T18:09:58.021Z,12.13
2019-02-04T18:12:29.305Z,12.33
2019-02-04T18:14:59.982Z,12.07
2019-02-04T18:17:30.741Z,13.83
2019-02-04T18:20:03.266Z,14.10
2019-02-04T18:22:35.381Z,12.83
2019-02-04T18:25:07.501Z,14.97
2019-02-04T18:27:38.741Z,12.43
2019-02-04T18:30:12.981Z,11.90
2019-02-04T18:32:43.981Z,12.70
2019-02-04T18:35:15.821Z,13.17
2019-02-04T18:37:47.037Z,14.07
2019-02-04T18:40:18.821Z,22.17
2019-02-04T18:42:50.062Z,13.93
2019-02-04T18:45:24.423Z,14.23
2019-02-04T18:47:55.542Z,13.20
2019-02-04T18:50:27.103Z,14.10
2019-02-04T18:52:57.781Z,14.10
2019-02-04T18:55:40.102Z,13.90
2019-02-04T18:58:21.621Z,14.30
2019-02-04T19:01:06.621Z,15.43
2019-02-04T19:03:49.741Z,13.77
2019-02-04T19:06:30.862Z,14.57
2019-02-04T19:09:08.465Z,17.20
2019-02-04T19:11:50.773Z,17.70
2019-02-04T19:14:41.903Z,16.70
2019-02-04T19:17:29.982Z,16.70
2019-02-04T19:20:08.461Z,16.73
2019-02-04T19:22:46.262Z,16.10
2019-02-04T19:25:31.301Z,17.03
2019-02-04T19:28:20.141Z,16.83
2019-02-04T19:31:05.062Z,17.10
2019-02-04T19:33:51.159Z,17.93
2019-02-04T19:36:27.713Z,16.90
2019-02-04T19:39:06.331Z,17.77
2019-02-04T19:41:42.221Z,17.30
2019-02-04T19:44:21.141Z,19.03
2019-02-04T19:47:02.341Z,17.93
2019-02-04T19:49:34.507Z,16.67
2019-02-04T19:52:07.395Z,17.80
2019-02-04T19:54:38.081Z,15.73
2019-02-04T19:57:09.708Z,14.63
2019-02-04T19:59:40.635Z,17.23
2019-02-04T20:02:12.635Z,17.43
2019-02-04T20:04:43.428Z,17.70
2019-02-04T20:07:14.429Z,19.07
2019-02-04T20:09:45.948Z,19.17
2019-02-04T20:12:22.507Z,21.30
2019-02-04T20:15:08.548Z,19.73
2019-02-04T20:17:51.485Z,19.80
2019-02-04T20:20:30.735Z,19.00
2019-02-04T20:23:10.187Z,15.13
2019-02-04T20:25:54.227Z,14.27
2019-02-04T20:28:41.852Z,14.87
2019-02-04T20:31:34.427Z,17.40
2019-02-04T20:34:14.949Z,18.97
2019-02-04T20:36:53.227Z,20.73
2019-02-04T20:40:05.655Z,17.20
2019-02-04T20:42:55.877Z,15.53
2019-02-04T20:45:39.245Z,15.03
2019-02-04T20:48:13.869Z,14.17
2019-02-04T20:50:46.549Z,13.43
2019-02-04T20:53:25.108Z,11.73
2019-02-04T20:55:55.868Z,10.90
2019-02-04T20:58:30.124Z,12.80
2019-02-04T21:01:01.748Z,13.00
2019-02-04T21:03:32.707Z,14.90
2019-02-04T21:06:12.907Z,15.50
2019-02-04T21:08:55.487Z,15.40
2019-02-04T21:11:38.467Z,14.97
2019-02-04T21:14:13.387Z,16.07
2019-02-04T21:16:52.579Z,16.10
2019-02-04T21:19:29.507Z,18.67
2019-02-04T21:22:05.587Z,17.73
2019-02-04T21:24:42.067Z,18.33
2019-02-04T21:27:14.068Z,20.57
2019-02-04T21:29:48.467Z,20.43
2019-02-04T21:32:22.667Z,23.43
2019-02-04T21:34:57.086Z,22.40
2019-02-04T21:37:37.508Z,22.83
2019-02-04T21:40:42.946Z,21.70
2019-02-04T21:43:20.267Z,21.60
2019-02-04T21:45:51.140Z,22.80
2019-02-04T21:48:22.228Z,23.90
2019-02-04T21:51:03.988Z,24.97
2019-02-04T21:53:53.186Z,22.80
2019-02-04T21:56:36.387Z,23.27
2019-02-04T21:59:23.307Z,26.40
2019-02-04T22:02:15.947Z,24.73
2019-02-04T22:05:08.707Z,23.13
2019-02-04T22:07:56.187Z,22.60
2019-02-04T22:10:42.415Z,22.93
2019-02-04T22:13:38.507Z,21.93
2019-02-04T22:16:11.827Z,25.87
2019-02-04T22:19:16.587Z,21.73
2019-02-04T22:22:04.648Z,22.50
2019-02-04T22:24:43.267Z,17.23
2019-02-04T22:27:27.467Z,25.27
2019-02-04T22:30:08.787Z,21.20
2019-02-04T22:32:40.196Z,19.50
2019-02-04T22:35:16.668Z,45.47
2019-02-04T22:38:02.398Z,21.27
2019-02-04T22:40:44.895Z,18.40
2019-02-04T22:43:21.868Z,19.60
2019-02-04T22:45:59.509Z,19.77
2019-02-04T22:48:34.179Z,22.83
2019-02-04T22:51:09.990Z,23.23
2019-02-04T22:53:45.685Z,22.33
2019-02-04T22:56:23.228Z,22.13
2019-02-04T22:58:55.147Z,22.83
2019-02-04T23:01:49.788Z,22.13
2019-02-04T23:04:31.147Z,24.57
2019-02-04T23:07:02.300Z,27.63
2019-02-04T23:09:33.788Z,24.30
2019-02-04T23:12:07.107Z,23.60
2019-02-04T23:14:48.508Z,21.33
2019-02-04T23:17:27.156Z,23.17
2019-02-04T23:20:04.748Z,23.10
2019-02-04T23:22:38.547Z,25.63
2019-02-04T23:25:11.347Z,25.10
2019-02-04T23:27:44.548Z,24.17
2019-02-04T23:30:16.395Z,26.87
2019-02-04T23:32:47.474Z,25.30
2019-02-04T23:35:20.497Z,25.83
2019-02-04T23:37:51.765Z,28.20
2019-02-04T23:40:23.532Z,25.77
2019-02-04T23:42:54.504Z,27.17
2019-02-04T23:45:25.625Z,28.37
2019-02-04T23:47:56.531Z,30.40
2019-02-04T23:50:27.344Z,29.57
2019-02-04T23:52:58.586Z,29.50
2019-02-04T23:55:30.100Z,27.50
2019-02-04T23:58:00.819Z,24.47
